createdAt,value
2022-10-23T00:00:15.707Z,13.53
2022-10-23T00:01:15.612Z,13.55
2022-10-23T00:02:15.618Z,13.54
2022-10-23T00:03:15.557Z,13.54
2022-10-23T00:04:15.547Z,13.54
2022-10-23T00:05:15.622Z,13.57
2022-10-23T00:06:15.592Z,13.53
2022-10-23T00:07:15.563Z,13.55
2022-10-23T00:08:15.493Z,13.55
2022-10-23T00:09:15.509Z,13.55
2022-10-23T00:10:15.505Z,13.54
2022-10-23T00:11:15.462Z,13.54
2022-10-23T00:12:15.494Z,13.46
2022-10-23T00:13:15.479Z,13.42
2022-10-23T00:14:15.440Z,13.35
2022-10-23T00:15:15.424Z,13.26
2022-10-23T00:16:15.434Z,13.24
2022-10-23T00:17:15.430Z,13.26
2022-10-23T00:18:15.400Z,13.26
2022-10-23T00:19:15.404Z,13.24
2022-10-23T00:20:15.487Z,13.27
2022-10-23T00:21:15.387Z,13.29
2022-10-23T00:22:15.400Z,13.26
2022-10-23T00:23:15.485Z,13.24
2022-10-23T00:24:15.377Z,13.24
2022-10-23T00:25:15.475Z,13.21
2022-10-23T00:26:15.320Z,13.23
2022-10-23T00:27:15.303Z,13.19
2022-10-23T00:28:15.304Z,13.19
2022-10-23T00:29:15.295Z,13.17
2022-10-23T00:30:15.316Z,13.16
2022-10-23T00:31:15.308Z,13.17
2022-10-23T00:32:15.289Z,13.19
2022-10-23T00:33:15.249Z,13.19
2022-10-23T00:34:15.237Z,13.16
2022-10-23T00:35:15.248Z,13.16
2022-10-23T00:36:15.237Z,13.19
2022-10-23T00:37:15.262Z,13.20
2022-10-23T00:38:15.200Z,13.24
2022-10-23T00:39:15.221Z,13.20
2022-10-23T00:40:15.175Z,13.23
2022-10-23T00:41:15.179Z,13.23
2022-10-23T00:42:15.185Z,13.26
2022-10-23T00:43:15.162Z,13.29
2022-10-23T00:44:15.116Z,13.27
2022-10-23T00:45:15.145Z,13.29
2022-10-23T00:46:15.114Z,13.29
2022-10-23T00:47:15.192Z,13.27
2022-10-23T00:48:15.081Z,13.21
2022-10-23T00:49:15.142Z,13.17
2022-10-23T00:50:15.141Z,13.16
2022-10-23T00:51:15.105Z,13.17
2022-10-23T00:52:15.059Z,13.17
2022-10-23T00:53:15.071Z,13.16
2022-10-23T00:54:30.421Z,13.20
2022-10-23T00:55:15.052Z,13.20
2022-10-23T00:56:15.033Z,13.21
2022-10-23T00:57:15.118Z,13.16
2022-10-23T00:58:15.031Z,13.16
2022-10-23T00:59:14.997Z,13.16
2022-10-23T01:00:15.014Z,13.16
2022-10-23T01:01:15.101Z,13.13
2022-10-23T01:02:15.143Z,13.13
2022-10-23T01:03:14.976Z,13.14
2022-10-23T01:04:15.015Z,13.13
2022-10-23T01:05:14.952Z,13.11
2022-10-23T01:06:14.924Z,13.05
2022-10-23T01:07:14.915Z,13.06
2022-10-23T01:08:14.896Z,13.09
2022-10-23T01:09:14.872Z,13.14
2022-10-23T01:10:14.872Z,13.16
2022-10-23T01:11:14.856Z,13.14
2022-10-23T01:12:14.868Z,13.17
2022-10-23T01:13:14.893Z,13.19
2022-10-23T01:14:14.846Z,13.19
2022-10-23T01:15:14.815Z,13.17
2022-10-23T01:16:14.818Z,13.16
2022-10-23T01:17:14.816Z,13.17
2022-10-23T01:18:14.817Z,13.17
2022-10-23T01:19:14.808Z,13.14
2022-10-23T01:20:14.774Z,13.21
2022-10-23T01:21:14.767Z,13.23
2022-10-23T01:22:14.776Z,13.20
2022-10-23T01:23:14.736Z,13.21
2022-10-23T01:24:14.743Z,13.23
2022-10-23T01:25:14.702Z,13.23
2022-10-23T01:26:14.712Z,13.23
2022-10-23T01:27:14.696Z,13.23
2022-10-23T01:28:14.685Z,13.23
2022-10-23T01:29:14.674Z,13.24
2022-10-23T01:30:14.684Z,13.26
2022-10-23T01:31:14.649Z,13.23
2022-10-23T01:32:14.640Z,13.24
2022-10-23T01:33:14.670Z,13.20
2022-10-23T01:34:14.624Z,13.20
2022-10-23T01:35:14.657Z,13.19
2022-10-23T01:36:14.597Z,13.20
2022-10-23T01:37:14.629Z,13.17
2022-10-23T01:38:14.626Z,13.21
2022-10-23T01:39:14.589Z,13.21
2022-10-23T01:40:14.602Z,13.24
2022-10-23T01:41:14.555Z,13.26
2022-10-23T01:42:14.558Z,13.30
2022-10-23T01:43:14.544Z,13.32
2022-10-23T01:44:14.544Z,13.32
2022-10-23T01:45:14.518Z,13.32
2022-10-23T01:46:14.534Z,13.27
2022-10-23T01:47:14.540Z,13.20
2022-10-23T01:48:14.496Z,13.14
2022-10-23T01:49:14.482Z,13.13
2022-10-23T01:50:14.475Z,13.13
2022-10-23T01:51:14.477Z,13.08
2022-10-23T01:52:14.447Z,13.13
2022-10-23T01:53:14.420Z,13.09
2022-10-23T01:54:14.459Z,13.16
2022-10-23T01:55:14.439Z,13.20
2022-10-23T01:56:14.399Z,13.20
2022-10-23T01:57:14.426Z,13.24
2022-10-23T01:58:14.400Z,13.23
2022-10-23T01:59:14.364Z,13.21
2022-10-23T02:00:14.376Z,13.19
2022-10-23T02:01:14.471Z,13.14
2022-10-23T02:02:14.438Z,13.05
2022-10-23T02:03:14.393Z,12.96
2022-10-23T02:04:14.318Z,12.91
2022-10-23T02:05:14.326Z,12.91
2022-10-23T02:06:14.316Z,12.90
2022-10-23T02:07:14.317Z,12.90
2022-10-23T02:08:14.289Z,12.88
2022-10-23T02:09:14.290Z,12.83
2022-10-23T02:10:14.277Z,12.83
2022-10-23T02:11:14.267Z,12.86
2022-10-23T02:12:14.281Z,12.83
2022-10-23T02:13:14.247Z,12.84
2022-10-23T02:14:14.239Z,12.84
2022-10-23T02:15:14.235Z,12.84
2022-10-23T02:16:14.209Z,12.84
2022-10-23T02:17:14.214Z,12.86
2022-10-23T02:18:14.231Z,12.90
2022-10-23T02:19:14.189Z,12.88
2022-10-23T02:20:14.157Z,12.91
2022-10-23T02:21:14.142Z,12.91
2022-10-23T02:22:14.161Z,12.91
2022-10-23T02:23:14.170Z,12.88
2022-10-23T02:24:14.109Z,12.87
2022-10-23T02:25:14.112Z,12.84
2022-10-23T02:26:14.094Z,12.80
2022-10-23T02:27:14.106Z,12.81
2022-10-23T02:28:14.089Z,12.86
2022-10-23T02:29:14.076Z,12.87
2022-10-23T02:30:14.056Z,12.87
2022-10-23T02:31:14.054Z,12.88
2022-10-23T02:32:14.059Z,12.84
2022-10-23T02:33:14.098Z,12.83
2022-10-23T02:34:13.967Z,12.80
2022-10-23T02:35:14.029Z,12.73
2022-10-23T02:36:14.020Z,12.80
2022-10-23T02:37:14.028Z,12.81
2022-10-23T02:38:14.004Z,12.83
2022-10-23T02:39:13.985Z,12.84
2022-10-23T02:40:13.962Z,12.86
2022-10-23T02:41:13.950Z,12.86
2022-10-23T02:42:13.989Z,12.87
2022-10-23T02:43:13.939Z,12.87
2022-10-23T02:44:13.906Z,12.84
2022-10-23T02:45:13.897Z,12.86
2022-10-23T02:46:13.953Z,12.90
2022-10-23T02:47:13.916Z,12.90
2022-10-23T02:48:13.911Z,12.86
2022-10-23T02:49:13.860Z,12.86
2022-10-23T02:50:13.854Z,12.86
2022-10-23T02:51:13.877Z,12.86
2022-10-23T02:52:13.838Z,12.87
2022-10-23T02:53:13.844Z,12.87
2022-10-23T02:54:13.815Z,12.93
2022-10-23T02:55:13.803Z,12.98
2022-10-23T02:56:13.812Z,12.99
2022-10-23T02:57:13.768Z,12.95
2022-10-23T02:58:14.031Z,12.91
2022-10-23T02:59:13.791Z,12.91
2022-10-23T03:00:13.770Z,12.90
2022-10-23T03:01:13.790Z,12.88
2022-10-23T03:02:13.833Z,12.88
2022-10-23T03:03:13.824Z,12.88
2022-10-23T03:04:13.724Z,12.90
2022-10-23T03:05:13.732Z,12.95
2022-10-23T03:06:13.695Z,12.91
2022-10-23T03:07:13.710Z,12.81
2022-10-23T03:08:13.673Z,12.83
2022-10-23T03:09:13.688Z,12.73
2022-10-23T03:10:13.656Z,12.73
2022-10-23T03:11:13.657Z,12.73
2022-10-23T03:12:13.626Z,12.76
2022-10-23T03:13:13.661Z,12.77
2022-10-23T03:14:13.638Z,12.73
2022-10-23T03:15:13.584Z,12.79
2022-10-23T03:16:13.578Z,12.83
2022-10-23T03:17:13.579Z,12.84
2022-10-23T03:18:13.642Z,12.86
2022-10-23T03:19:14.067Z,12.91
2022-10-23T03:20:13.564Z,12.91
2022-10-23T03:21:13.536Z,12.93
2022-10-23T03:22:13.524Z,12.87
2022-10-23T03:23:13.527Z,12.86
2022-10-23T03:24:13.527Z,12.86
2022-10-23T03:25:13.481Z,12.86
2022-10-23T03:26:13.513Z,12.79
2022-10-23T03:27:13.462Z,12.79
2022-10-23T03:28:13.462Z,12.79
2022-10-23T03:29:13.462Z,12.76
2022-10-23T03:30:13.445Z,12.79
2022-10-23T03:31:13.466Z,12.76
2022-10-23T03:32:13.436Z,12.80
2022-10-23T03:33:13.434Z,12.79
2022-10-23T03:34:13.402Z,12.79
2022-10-23T03:35:13.422Z,12.76
2022-10-23T03:36:13.376Z,12.73
2022-10-23T03:37:13.320Z,12.76
2022-10-23T03:38:13.375Z,12.77
2022-10-23T03:39:13.358Z,12.73
2022-10-23T03:40:13.371Z,12.77
2022-10-23T03:41:13.368Z,12.79
2022-10-23T03:42:13.316Z,12.79
2022-10-23T03:43:13.318Z,12.73
2022-10-23T03:44:13.319Z,12.71
2022-10-23T03:45:13.305Z,12.71
2022-10-23T03:46:13.312Z,12.69
2022-10-23T03:47:13.315Z,12.65
2022-10-23T03:48:13.254Z,12.66
2022-10-23T03:49:13.241Z,12.66
2022-10-23T03:50:13.267Z,12.68
2022-10-23T03:51:13.235Z,12.68
2022-10-23T03:52:13.275Z,12.68
2022-10-23T03:53:13.232Z,12.69
2022-10-23T03:54:13.209Z,12.72
2022-10-23T03:55:13.237Z,12.73
2022-10-23T03:56:13.203Z,12.73
2022-10-23T03:57:13.184Z,12.76
2022-10-23T03:58:13.182Z,12.76
2022-10-23T03:59:13.162Z,12.79
2022-10-23T04:00:13.150Z,12.79
2022-10-23T04:01:13.236Z,12.77
2022-10-23T04:02:13.168Z,12.73
2022-10-23T04:03:13.133Z,12.73
2022-10-23T04:04:13.135Z,12.77
2022-10-23T04:05:13.095Z,12.77
2022-10-23T04:06:13.155Z,12.76
2022-10-23T04:07:13.058Z,12.76
2022-10-23T04:08:17.521Z,12.73
2022-10-23T04:10:13.079Z,12.76
2022-10-23T04:11:13.032Z,12.77
2022-10-23T04:12:13.056Z,12.76
2022-10-23T04:13:13.015Z,12.77
2022-10-23T04:14:13.013Z,12.76
2022-10-23T04:15:13.006Z,12.79
2022-10-23T04:16:13.040Z,12.79
2022-10-23T04:17:13.001Z,12.79
2022-10-23T04:18:12.957Z,12.77
2022-10-23T04:19:12.968Z,12.69
2022-10-23T04:20:12.987Z,12.68
2022-10-23T04:21:12.947Z,12.65
2022-10-23T04:22:12.923Z,12.68
2022-10-23T04:23:12.912Z,12.68
2022-10-23T04:24:12.907Z,12.68
2022-10-23T04:25:12.880Z,12.62
2022-10-23T04:26:12.914Z,12.62
2022-10-23T04:27:12.894Z,12.53
2022-10-23T04:28:12.850Z,12.50
2022-10-23T04:29:12.867Z,12.47
2022-10-23T04:30:12.886Z,12.40
2022-10-23T04:31:12.841Z,12.41
2022-10-23T04:32:12.826Z,12.35
2022-10-23T04:33:12.828Z,12.36
2022-10-23T04:34:12.830Z,12.35
2022-10-23T04:35:12.783Z,12.41
2022-10-23T04:36:12.782Z,12.44
2022-10-23T04:37:12.781Z,12.46
2022-10-23T04:38:12.754Z,12.51
2022-10-23T04:39:12.745Z,12.55
2022-10-23T04:40:12.750Z,12.58
2022-10-23T04:41:12.701Z,12.59
2022-10-23T04:42:12.816Z,12.62
2022-10-23T04:43:12.700Z,12.62
2022-10-23T04:44:12.725Z,12.58
2022-10-23T04:45:12.695Z,12.62
2022-10-23T04:46:12.684Z,12.63
2022-10-23T04:47:12.696Z,12.62
2022-10-23T04:48:12.666Z,12.62
2022-10-23T04:49:12.703Z,12.63
2022-10-23T04:50:12.655Z,12.65
2022-10-23T04:51:12.621Z,12.65
2022-10-23T04:52:12.637Z,12.65
2022-10-23T04:53:12.639Z,12.62
2022-10-23T04:54:12.638Z,12.63
2022-10-23T04:55:12.594Z,12.62
2022-10-23T04:56:12.620Z,12.62
2022-10-23T04:57:12.566Z,12.61
2022-10-23T04:58:12.579Z,12.62
2022-10-23T04:59:12.546Z,12.63
2022-10-23T05:00:12.538Z,12.65
2022-10-23T05:01:12.638Z,12.63
2022-10-23T05:02:12.536Z,12.65
2022-10-23T05:03:12.507Z,12.69
2022-10-23T05:04:12.500Z,12.71
2022-10-23T05:05:12.508Z,12.71
2022-10-23T05:06:12.481Z,12.69
2022-10-23T05:07:12.531Z,12.61
2022-10-23T05:08:15.625Z,12.61
2022-10-23T05:09:12.452Z,12.55
2022-10-23T05:10:12.431Z,12.55
2022-10-23T05:11:12.440Z,12.54
2022-10-23T05:12:12.443Z,12.55
2022-10-23T05:13:12.433Z,12.59
2022-10-23T05:14:12.405Z,12.55
2022-10-23T05:15:12.408Z,12.58
2022-10-23T05:16:12.371Z,12.59
2022-10-23T05:17:12.361Z,12.58
2022-10-23T05:18:12.382Z,12.61
2022-10-23T05:19:12.351Z,12.58
2022-10-23T05:20:12.323Z,12.59
2022-10-23T05:21:12.339Z,12.58
2022-10-23T05:22:12.315Z,12.55
2022-10-23T05:23:12.319Z,12.54
2022-10-23T05:24:12.337Z,12.54
2022-10-23T05:25:12.263Z,12.54
2022-10-23T05:26:12.273Z,12.54
2022-10-23T05:27:12.259Z,12.54
2022-10-23T05:28:12.258Z,12.47
2022-10-23T05:29:12.353Z,12.41
2022-10-23T05:30:12.239Z,12.35
2022-10-23T05:31:12.217Z,12.30
2022-10-23T05:32:12.267Z,12.33
2022-10-23T05:33:12.200Z,12.32
2022-10-23T05:34:13.427Z,12.29
2022-10-23T05:35:12.160Z,12.33
2022-10-23T05:36:12.121Z,12.35
2022-10-23T05:37:12.146Z,12.33
2022-10-23T05:38:12.112Z,12.35
2022-10-23T05:39:12.141Z,12.36
2022-10-23T05:40:12.160Z,12.41
2022-10-23T05:41:12.140Z,12.38
2022-10-23T05:42:12.073Z,12.36
2022-10-23T05:43:12.056Z,12.40
2022-10-23T05:44:12.060Z,12.40
2022-10-23T05:45:12.028Z,12.41
2022-10-23T05:46:12.029Z,12.41
2022-10-23T05:47:12.036Z,12.40
2022-10-23T05:48:22.842Z,12.38
2022-10-23T05:49:12.002Z,12.36
2022-10-23T05:50:11.991Z,12.35
2022-10-23T05:51:12.012Z,12.38
2022-10-23T05:52:11.965Z,12.40
2022-10-23T05:53:11.970Z,12.36
2022-10-23T05:54:11.960Z,12.36
2022-10-23T05:55:11.926Z,12.41
2022-10-23T05:56:11.919Z,12.46
2022-10-23T05:57:11.989Z,12.51
2022-10-23T05:58:11.908Z,12.59
2022-10-23T05:59:11.916Z,12.63
2022-10-23T06:00:11.903Z,12.63
2022-10-23T06:01:11.984Z,12.68
2022-10-23T06:02:11.967Z,12.63
2022-10-23T06:03:11.839Z,12.59
2022-10-23T06:04:11.863Z,12.53
2022-10-23T06:05:11.835Z,12.48
2022-10-23T06:06:11.842Z,12.47
2022-10-23T06:07:11.825Z,12.47
2022-10-23T06:08:11.807Z,12.47
2022-10-23T06:09:11.807Z,12.46
2022-10-23T06:10:11.778Z,12.44
2022-10-23T06:11:11.815Z,12.46
2022-10-23T06:12:11.787Z,12.46
2022-10-23T06:13:11.736Z,12.48
2022-10-23T06:14:11.735Z,12.51
2022-10-23T06:15:11.719Z,12.55
2022-10-23T06:16:11.711Z,12.54
2022-10-23T06:17:11.719Z,12.53
2022-10-23T06:18:11.718Z,12.48
2022-10-23T06:19:11.691Z,12.44
2022-10-23T06:20:11.677Z,12.43
2022-10-23T06:21:11.675Z,12.44
2022-10-23T06:22:11.680Z,12.41
2022-10-23T06:23:11.687Z,12.43
2022-10-23T06:24:11.638Z,12.38
2022-10-23T06:25:11.644Z,12.40
2022-10-23T06:26:11.632Z,12.41
2022-10-23T06:27:11.604Z,12.43
2022-10-23T06:28:11.622Z,12.44
2022-10-23T06:29:11.585Z,12.46
2022-10-23T06:30:11.586Z,12.46
2022-10-23T06:31:11.563Z,12.46
2022-10-23T06:32:11.549Z,12.47
2022-10-23T06:33:11.571Z,12.48
2022-10-23T06:34:11.532Z,12.47
2022-10-23T06:35:11.553Z,12.44
2022-10-23T06:36:11.528Z,12.48
2022-10-23T06:37:11.508Z,12.50
2022-10-23T06:38:11.489Z,12.47
2022-10-23T06:39:11.509Z,12.51
2022-10-23T06:40:11.484Z,12.47
2022-10-23T06:41:11.491Z,12.51
2022-10-23T06:42:11.465Z,12.53
2022-10-23T06:43:11.454Z,12.58
2022-10-23T06:44:11.496Z,12.62
2022-10-23T06:45:11.447Z,12.71
2022-10-23T06:46:11.411Z,12.77
2022-10-23T06:47:11.473Z,12.79
2022-10-23T06:48:11.423Z,12.77
2022-10-23T06:49:11.385Z,12.80
2022-10-23T06:50:14.550Z,12.77
2022-10-23T06:51:11.379Z,12.84
2022-10-23T06:52:18.526Z,12.81
2022-10-23T06:53:11.337Z,12.86
2022-10-23T06:54:11.323Z,12.88
2022-10-23T06:55:11.318Z,12.90
2022-10-23T06:56:11.307Z,12.91
2022-10-23T06:57:11.300Z,12.95
2022-10-23T06:58:11.320Z,12.98
2022-10-23T06:59:11.307Z,12.99
2022-10-23T07:00:11.278Z,12.95
2022-10-23T07:01:11.397Z,12.95
2022-10-23T07:02:11.258Z,13.04
2022-10-23T07:03:11.284Z,13.06
2022-10-23T07:04:11.230Z,13.09
2022-10-23T07:05:13.602Z,13.19
2022-10-23T07:06:11.225Z,13.19
2022-10-23T07:07:11.206Z,13.20
2022-10-23T07:08:11.209Z,13.23
2022-10-23T07:09:11.182Z,13.24
2022-10-23T07:10:11.225Z,13.24
2022-10-23T07:11:11.167Z,13.20
2022-10-23T07:12:11.165Z,13.24
2022-10-23T07:13:11.173Z,13.27
2022-10-23T07:14:11.141Z,13.36
2022-10-23T07:15:11.141Z,13.43
2022-10-23T07:16:11.112Z,13.55
2022-10-23T07:17:11.109Z,13.73
2022-10-23T07:18:11.116Z,13.83
2022-10-23T07:19:11.076Z,13.86
2022-10-23T07:20:11.083Z,13.86
2022-10-23T07:21:11.072Z,13.80
2022-10-23T07:22:13.420Z,13.75
2022-10-23T07:23:11.069Z,13.71
2022-10-23T07:24:11.049Z,13.67
2022-10-23T07:25:11.034Z,13.65
2022-10-23T07:26:10.998Z,13.65
2022-10-23T07:27:10.998Z,13.65
2022-10-23T07:28:10.993Z,13.58
2022-10-23T07:29:11.006Z,13.58
2022-10-23T07:30:10.965Z,13.54
2022-10-23T07:31:10.986Z,13.55
2022-10-23T07:32:10.970Z,13.57
2022-10-23T07:33:10.947Z,13.55
2022-10-23T07:34:10.952Z,13.57
2022-10-23T07:35:10.969Z,13.53
2022-10-23T07:36:10.965Z,13.55
2022-10-23T07:37:10.921Z,13.57
2022-10-23T07:38:10.905Z,13.64
2022-10-23T07:39:10.875Z,13.67
2022-10-23T07:40:10.871Z,13.65
2022-10-23T07:41:11.688Z,13.64
2022-10-23T07:42:10.862Z,13.65
2022-10-23T07:43:10.867Z,13.63
2022-10-23T07:44:10.851Z,13.63
2022-10-23T07:45:10.827Z,13.57
2022-10-23T07:46:10.835Z,13.60
2022-10-23T07:47:10.841Z,13.64
2022-10-23T07:48:10.779Z,13.64
2022-10-23T07:49:10.787Z,13.67
2022-10-23T07:50:10.772Z,13.72
2022-10-23T07:51:10.903Z,13.76
2022-10-23T07:52:10.779Z,13.80
2022-10-23T07:53:10.795Z,13.80
2022-10-23T07:54:10.747Z,13.76
2022-10-23T07:55:10.739Z,13.76
2022-10-23T07:56:10.698Z,13.79
2022-10-23T07:57:10.754Z,13.82
2022-10-23T07:58:10.693Z,13.82
2022-10-23T07:59:10.717Z,13.85
2022-10-23T08:00:10.778Z,13.82
2022-10-23T08:01:10.708Z,13.79
2022-10-23T08:02:10.705Z,13.80
2022-10-23T08:03:10.652Z,13.82
2022-10-23T08:04:10.633Z,13.85
2022-10-23T08:05:10.644Z,13.90
2022-10-23T08:06:10.625Z,13.91
2022-10-23T08:07:10.636Z,13.94
2022-10-23T08:08:10.576Z,13.96
2022-10-23T08:09:10.583Z,13.98
2022-10-23T08:10:10.593Z,13.93
2022-10-23T08:11:10.606Z,13.85
2022-10-23T08:12:10.575Z,13.76
2022-10-23T08:13:10.557Z,13.73
2022-10-23T08:14:10.531Z,13.72
2022-10-23T08:15:10.545Z,13.79
2022-10-23T08:16:10.516Z,13.80
2022-10-23T08:17:10.514Z,13.82
2022-10-23T08:18:10.483Z,13.85
2022-10-23T08:19:10.502Z,13.91
2022-10-23T08:20:10.466Z,13.90
2022-10-23T08:21:10.488Z,13.88
2022-10-23T08:22:10.444Z,13.90
2022-10-23T08:23:10.447Z,13.96
2022-10-23T08:24:10.415Z,13.93
2022-10-23T08:25:10.497Z,13.97
2022-10-23T08:26:10.413Z,14.00
2022-10-23T08:27:10.415Z,14.04
2022-10-23T08:28:10.395Z,14.05
2022-10-23T08:29:10.401Z,14.04
2022-10-23T08:30:10.408Z,14.05
2022-10-23T08:31:10.577Z,14.04
2022-10-23T08:32:11.122Z,14.04
2022-10-23T08:33:10.434Z,14.05
2022-10-23T08:34:10.451Z,14.11
2022-10-23T08:35:11.048Z,14.16
2022-10-23T08:36:10.416Z,14.19
2022-10-23T08:37:10.309Z,14.26
2022-10-23T08:38:10.271Z,14.26
2022-10-23T08:39:10.281Z,14.26
2022-10-23T08:40:10.366Z,14.27
2022-10-23T08:41:10.334Z,14.27
2022-10-23T08:43:10.259Z,14.31
2022-10-23T08:44:10.251Z,14.37
2022-10-23T08:45:10.562Z,14.40
2022-10-23T08:46:10.225Z,14.45
2022-10-23T08:47:10.240Z,14.44
2022-10-23T08:48:10.165Z,14.45
2022-10-23T08:49:10.244Z,14.49
2022-10-23T08:50:10.174Z,14.53
2022-10-23T08:51:10.151Z,14.55
2022-10-23T08:52:13.216Z,14.55
2022-10-23T08:53:10.177Z,14.56
2022-10-23T08:54:10.469Z,14.58
2022-10-23T08:55:10.112Z,14.53
2022-10-23T08:56:10.124Z,14.55
2022-10-23T08:57:10.110Z,14.52
2022-10-23T08:58:10.084Z,14.45
2022-10-23T08:59:10.100Z,14.38
2022-10-23T09:00:10.055Z,14.34
2022-10-23T09:01:10.218Z,14.33
2022-10-23T09:02:10.268Z,14.38
2022-10-23T09:03:10.031Z,14.41
2022-10-23T09:04:10.079Z,14.44
2022-10-23T09:05:10.012Z,14.46
2022-10-23T09:06:10.008Z,14.48
2022-10-23T09:08:09.982Z,14.49
2022-10-23T09:09:09.996Z,14.51
2022-10-23T09:10:09.958Z,14.52
2022-10-23T09:11:09.943Z,14.52
2022-10-23T09:12:09.948Z,14.53
2022-10-23T09:13:09.923Z,14.58
2022-10-23T09:14:09.982Z,14.52
2022-10-23T09:15:10.053Z,14.61
2022-10-23T09:16:09.922Z,14.59
2022-10-23T09:17:09.980Z,14.61
2022-10-23T09:18:09.954Z,14.64
2022-10-23T09:19:12.083Z,14.69
2022-10-23T09:20:09.872Z,14.66
2022-10-23T09:21:09.878Z,14.67
2022-10-23T09:22:09.878Z,14.67
2022-10-23T09:23:09.860Z,14.67
2022-10-23T09:24:09.827Z,14.64
2022-10-23T09:25:09.812Z,14.64
2022-10-23T09:26:09.842Z,14.64
2022-10-23T09:27:09.841Z,14.66
2022-10-23T09:28:09.772Z,14.69
2022-10-23T09:29:09.796Z,14.73
2022-10-23T09:30:09.759Z,14.77
2022-10-23T09:31:09.762Z,14.82
2022-10-23T09:32:09.763Z,14.83
2022-10-23T09:33:09.780Z,14.86
2022-10-23T09:34:11.711Z,14.86
2022-10-23T09:35:09.714Z,14.89
2022-10-23T09:36:09.703Z,14.93
2022-10-23T09:37:09.752Z,14.95
2022-10-23T09:38:09.731Z,14.97
2022-10-23T09:39:09.664Z,15.04
2022-10-23T09:40:09.710Z,15.05
2022-10-23T09:41:09.678Z,15.08
2022-10-23T09:42:09.675Z,15.10
2022-10-23T09:43:09.628Z,15.14
2022-10-23T09:44:09.635Z,15.17
2022-10-23T09:45:09.639Z,15.20
2022-10-23T09:46:09.640Z,15.23
2022-10-23T09:47:09.617Z,15.26
2022-10-23T09:48:09.611Z,15.35
2022-10-23T09:49:09.627Z,15.38
2022-10-23T09:50:09.559Z,15.38
2022-10-23T09:51:09.571Z,15.38
2022-10-23T09:52:09.553Z,15.45
2022-10-23T09:53:09.547Z,15.44
2022-10-23T09:54:09.545Z,15.45
2022-10-23T09:55:09.532Z,15.47
2022-10-23T09:56:09.510Z,15.50
2022-10-23T09:57:09.536Z,15.54
2022-10-23T09:58:09.485Z,15.51
2022-10-23T09:59:09.484Z,15.56
2022-10-23T10:00:09.468Z,15.58
2022-10-23T10:01:09.535Z,15.62
2022-10-23T10:02:09.593Z,15.63
2022-10-23T10:03:09.454Z,15.65
2022-10-23T10:04:09.446Z,15.69
2022-10-23T10:05:09.433Z,15.69
2022-10-23T10:06:09.419Z,15.72
2022-10-23T10:07:09.392Z,15.69
2022-10-23T10:08:09.409Z,15.69
2022-10-23T10:09:09.414Z,15.69
2022-10-23T10:10:09.383Z,15.68
2022-10-23T10:11:09.343Z,15.70
2022-10-23T10:12:09.367Z,15.68
2022-10-23T10:13:13.051Z,15.63
2022-10-23T10:14:09.351Z,15.68
2022-10-23T10:15:09.349Z,15.66
2022-10-23T10:16:09.302Z,15.65
2022-10-23T10:17:09.296Z,15.68
2022-10-23T10:18:09.336Z,15.70
2022-10-23T10:19:09.320Z,15.69
2022-10-23T10:20:09.276Z,15.70
2022-10-23T10:21:09.263Z,15.72
2022-10-23T10:22:09.282Z,15.72
2022-10-23T10:23:09.274Z,15.69
2022-10-23T10:24:09.253Z,15.69
2022-10-23T10:25:09.260Z,15.68
2022-10-23T10:26:09.211Z,15.68
2022-10-23T10:27:09.195Z,15.70
2022-10-23T10:28:09.234Z,15.73
2022-10-23T10:29:09.179Z,15.76
2022-10-23T10:30:09.214Z,15.76
2022-10-23T10:31:09.178Z,15.76
2022-10-23T10:32:09.179Z,15.77
2022-10-23T10:33:09.180Z,15.76
2022-10-23T10:34:09.149Z,15.80
2022-10-23T10:35:09.174Z,15.78
2022-10-23T10:36:09.114Z,15.77
2022-10-23T10:37:09.145Z,15.78
2022-10-23T10:38:09.129Z,15.77
2022-10-23T10:39:09.094Z,15.76
2022-10-23T10:40:09.111Z,15.73
2022-10-23T10:41:09.069Z,15.72
2022-10-23T10:42:09.078Z,15.70
2022-10-23T10:43:09.082Z,15.69
2022-10-23T10:44:09.038Z,15.72
2022-10-23T10:45:09.052Z,15.72
2022-10-23T10:46:09.061Z,15.72
2022-10-23T10:47:09.009Z,15.72
2022-10-23T10:48:09.013Z,15.70
2022-10-23T10:49:09.012Z,15.70
2022-10-23T10:50:09.043Z,15.70
2022-10-23T10:51:08.959Z,15.69
2022-10-23T10:52:08.980Z,15.69
2022-10-23T10:53:08.941Z,15.69
2022-10-23T10:54:09.002Z,15.72
2022-10-23T10:55:08.925Z,15.69
2022-10-23T10:57:08.930Z,15.77
2022-10-23T10:58:08.896Z,15.83
2022-10-23T10:59:08.907Z,15.87
2022-10-23T11:00:08.910Z,15.93
2022-10-23T11:01:09.017Z,15.91
2022-10-23T11:02:09.048Z,15.98
2022-10-23T11:03:08.858Z,15.93
2022-10-23T11:04:08.833Z,15.96
2022-10-23T11:05:08.864Z,16.00
2022-10-23T11:06:08.847Z,16.00
2022-10-23T11:07:08.848Z,16.00
2022-10-23T11:08:08.870Z,16.03
2022-10-23T11:09:20.457Z,15.98
2022-10-23T11:10:08.778Z,15.96
2022-10-23T11:11:08.846Z,15.96
2022-10-23T11:12:08.774Z,15.93
2022-10-23T11:13:08.768Z,15.93
2022-10-23T11:14:08.771Z,15.91
2022-10-23T11:15:08.723Z,15.91
2022-10-23T11:16:08.743Z,15.90
2022-10-23T11:17:08.713Z,15.90
2022-10-23T11:18:08.727Z,15.90
2022-10-23T11:19:11.503Z,15.90
2022-10-23T11:20:08.707Z,15.88
2022-10-23T11:21:08.694Z,15.88
2022-10-23T11:22:08.672Z,15.91
2022-10-23T11:23:08.655Z,15.95
2022-10-23T11:25:08.650Z,16.00
2022-10-23T11:26:08.662Z,16.03
2022-10-23T11:27:08.615Z,16.09
2022-10-23T11:28:10.786Z,16.16
2022-10-23T11:29:08.601Z,16.17
2022-10-23T11:30:08.615Z,16.22
2022-10-23T11:31:11.858Z,16.25
2022-10-23T11:32:08.568Z,16.29
2022-10-23T11:33:08.543Z,16.32
2022-10-23T11:34:08.575Z,16.32
2022-10-23T11:35:08.550Z,16.33
2022-10-23T11:36:08.521Z,16.29
2022-10-23T11:37:08.517Z,16.25
2022-10-23T11:38:08.534Z,16.18
2022-10-23T11:39:08.478Z,16.16
2022-10-23T11:40:08.480Z,16.13
2022-10-23T11:41:08.497Z,16.09
2022-10-23T11:42:08.493Z,16.10
2022-10-23T11:43:08.469Z,16.14
2022-10-23T11:44:08.445Z,16.17
2022-10-23T11:45:08.430Z,16.17
2022-10-23T11:46:08.419Z,16.22
2022-10-23T11:47:08.422Z,16.26
2022-10-23T11:48:08.442Z,16.39
2022-10-23T11:49:08.427Z,16.51
2022-10-23T11:50:08.402Z,16.59
2022-10-23T11:51:08.363Z,16.61
2022-10-23T11:52:08.380Z,16.61
2022-10-23T11:53:16.254Z,16.62
2022-10-23T11:54:08.410Z,16.65
2022-10-23T11:55:08.325Z,16.65
2022-10-23T11:56:08.331Z,16.67
2022-10-23T11:57:10.630Z,16.64
2022-10-23T11:58:08.301Z,16.64
2022-10-23T11:59:08.311Z,16.67
2022-10-23T12:00:08.305Z,16.67
2022-10-23T12:01:08.328Z,16.72
2022-10-23T12:02:08.324Z,16.79
2022-10-23T12:03:08.279Z,16.83
2022-10-23T12:04:08.279Z,16.91
2022-10-23T12:05:08.297Z,16.95
2022-10-23T12:06:08.234Z,16.99
2022-10-23T12:07:08.220Z,16.97
2022-10-23T12:08:08.239Z,16.97
2022-10-23T12:09:08.189Z,16.98
2022-10-23T12:10:08.196Z,17.01
2022-10-23T12:11:08.205Z,17.02
2022-10-23T12:12:08.178Z,17.06
2022-10-23T12:13:08.167Z,17.13
2022-10-23T12:14:08.207Z,17.14
2022-10-23T12:15:08.135Z,17.22
2022-10-23T12:16:08.122Z,17.22
2022-10-23T12:17:08.136Z,17.22
2022-10-23T12:18:08.163Z,17.28
2022-10-23T12:19:08.104Z,17.31
2022-10-23T12:20:08.090Z,17.34
2022-10-23T12:21:08.071Z,17.41
2022-10-23T12:22:08.088Z,17.43
2022-10-23T12:23:08.077Z,17.45
2022-10-23T12:24:08.048Z,17.47
2022-10-23T12:25:08.054Z,17.45
2022-10-23T12:26:08.034Z,17.41
2022-10-23T12:27:08.055Z,17.41
2022-10-23T12:28:08.006Z,17.43
2022-10-23T12:29:07.998Z,17.45
2022-10-23T12:30:08.011Z,17.50
2022-10-23T12:31:07.968Z,17.50
2022-10-23T12:32:07.979Z,17.53
2022-10-23T12:33:07.947Z,17.50
2022-10-23T12:34:07.963Z,17.52
2022-10-23T12:35:07.966Z,17.53
2022-10-23T12:36:07.928Z,17.59
2022-10-23T12:37:07.937Z,17.63
2022-10-23T12:38:07.921Z,17.66
2022-10-23T12:39:07.914Z,17.63
2022-10-23T12:40:07.899Z,17.65
2022-10-23T12:41:07.882Z,17.62
2022-10-23T12:42:07.878Z,17.57
2022-10-23T12:43:07.855Z,17.59
2022-10-23T12:44:07.853Z,17.59
2022-10-23T12:45:07.816Z,17.66
2022-10-23T12:46:07.850Z,17.69
2022-10-23T12:47:07.854Z,17.65
2022-10-23T12:48:07.800Z,17.63
2022-10-23T12:49:07.783Z,17.59
2022-10-23T12:50:07.772Z,17.59
2022-10-23T12:51:07.816Z,17.65
2022-10-23T12:52:07.818Z,17.66
2022-10-23T12:53:07.745Z,17.71
2022-10-23T12:54:07.750Z,17.73
2022-10-23T12:55:07.746Z,17.75
2022-10-23T12:56:07.721Z,17.75
2022-10-23T12:57:07.722Z,17.78